Terminal Aerodrome Forecast
Issued by NWS

Home | Current Version | Previous Version | Graphics & Text | Print | Product List | Glossary On
Versions: 1 2 3 4 5 6 7 8 9 10 11 12 13 14 15 16 17 18 19 20 21 22 23 24 25 26 27 28 29 30 31 32 33 34 35 36 37 38 39 40 41 42 43
000
FTUS43 KGRB 251100
TAFRHI
TAF
KRHI 251123Z 2512/2612 20005KT P6SM VCSH SCT050 BKN100
      WS010/23030KT
      TEMPO 2512/2514 5SM -TSRA BKN050CB
     FM251400 19010G15KT P6SM VCSH SCT035 BKN070
      TEMPO 2514/2518 5SM -TSRA BKN035CB
     FM260000 19005KT 5SM BR VCSH SCT020 BKN030
     FM260600 22004KT 3SM BR SCT010 OVC013
     FM260900 27003KT 1SM BR OVC006=

USA.gov is the U.S. government's official web portal to all federal, state and local government web resources and services.